createdAt,value
2022-10-05T00:01:37.190Z,101558.53
2022-10-05T00:04:55.022Z,101514.41
2022-10-05T00:08:25.324Z,101561.22
2022-10-05T00:11:34.176Z,101570.91
2022-10-05T00:14:53.855Z,101573.56
2022-10-05T00:18:09.987Z,101576.25
2022-10-05T00:21:39.869Z,101558.56
2022-10-05T00:25:01.969Z,101560.38
2022-10-05T00:28:26.010Z,101555.97
2022-10-05T00:31:32.870Z,101557.72
2022-10-05T00:34:48.857Z,101556.84
2022-10-05T00:37:54.654Z,101567.44
2022-10-05T00:41:25.107Z,101559.50
2022-10-05T00:44:54.667Z,101551.53
2022-10-05T00:48:38.870Z,101548.00
2022-10-05T00:52:03.255Z,101559.50
2022-10-05T00:55:41.855Z,101547.16
2022-10-05T00:59:15.030Z,101555.09
2022-10-05T01:02:36.930Z,101557.75
2022-10-05T01:06:11.921Z,101549.78
2022-10-05T01:09:39.971Z,101555.97
2022-10-05T01:13:02.659Z,101563.03
2022-10-05T01:16:26.034Z,101548.87
2022-10-05T01:19:48.101Z,101585.09
2022-10-05T01:23:31.876Z,101581.56
2022-10-05T01:27:06.568Z,101575.38
2022-10-05T01:30:24.955Z,101596.56
2022-10-05T01:33:51.864Z,101584.22
2022-10-05T01:37:07.452Z,101585.09
2022-10-05T01:40:40.864Z,101600.13
2022-10-05T01:43:54.715Z,101585.09
2022-10-05T01:47:20.889Z,101601.00
2022-10-05T01:50:53.951Z,101596.56
2022-10-05T01:54:45.872Z,101579.81
2022-10-05T01:58:16.904Z,101590.41
2022-10-05T02:01:42.932Z,101571.84
2022-10-05T02:05:05.873Z,101594.81
2022-10-05T02:08:16.703Z,101591.28
2022-10-05T02:11:31.051Z,101593.91
2022-10-05T02:15:08.325Z,101597.44
2022-10-05T02:18:22.892Z,101610.69
2022-10-05T02:21:40.938Z,101603.59
2022-10-05T02:25:01.092Z,101618.62
2022-10-05T02:28:20.963Z,101608.88
2022-10-05T02:31:56.010Z,101623.91
2022-10-05T02:35:02.220Z,101618.59
2022-10-05T02:38:32.880Z,101615.94
2022-10-05T02:42:07.955Z,101619.47
2022-10-05T02:45:23.020Z,101622.97
2022-10-05T02:49:07.905Z,101613.25
2022-10-05T02:52:24.068Z,101630.91
2022-10-05T02:55:49.954Z,101634.44
2022-10-05T02:59:13.882Z,101627.38
2022-10-05T03:02:35.954Z,101612.31
2022-10-05T03:05:51.896Z,101635.31
2022-10-05T03:09:04.150Z,101632.69
2022-10-05T03:12:41.892Z,101605.28
2022-10-05T03:16:14.941Z,101599.06
2022-10-05T03:19:45.391Z,101598.19
2022-10-05T03:23:00.642Z,101613.22
2022-10-05T03:26:22.148Z,101612.34
2022-10-05T03:29:50.896Z,101603.47
2022-10-05T03:33:21.952Z,101607.03
2022-10-05T03:36:42.454Z,101606.13
2022-10-05T03:40:06.007Z,101608.75
2022-10-05T03:43:35.538Z,101610.53
2022-10-05T03:47:09.927Z,101621.09
2022-10-05T03:50:39.929Z,101599.00
2022-10-05T03:53:56.758Z,101634.31
2022-10-05T03:57:28.939Z,101630.78
2022-10-05T04:00:40.669Z,101601.56
2022-10-05T04:03:54.904Z,101638.69
2022-10-05T04:07:10.957Z,101644.91
2022-10-05T04:10:21.027Z,101636.94
2022-10-05T04:13:43.898Z,101635.22
2022-10-05T04:17:07.940Z,101630.78
2022-10-05T04:20:31.842Z,101629.94
2022-10-05T04:23:59.886Z,101630.75
2022-10-05T04:27:15.058Z,101635.22
2022-10-05T04:30:29.911Z,101639.66
2022-10-05T04:33:45.147Z,101629.03
2022-10-05T04:36:58.616Z,101646.75
2022-10-05T04:40:47.949Z,101591.94
2022-10-05T04:44:18.254Z,101645.00
2022-10-05T04:47:55.922Z,101652.00
2022-10-05T04:51:31.919Z,101631.66
2022-10-05T04:55:12.319Z,101646.69
2022-10-05T04:58:53.915Z,101651.13
2022-10-05T05:02:31.928Z,101644.97
2022-10-05T05:06:18.156Z,101645.88
2022-10-05T05:09:56.035Z,101644.09
2022-10-05T05:13:42.921Z,101641.50
2022-10-05T05:17:04.243Z,101639.75
2022-10-05T05:20:49.066Z,101634.50
2022-10-05T06:02:38.095Z,101693.63
2022-10-05T06:05:58.084Z,101688.81
2022-10-05T06:09:33.952Z,101699.00
2022-10-05T06:33:18.086Z,101713.78
2022-10-05T06:36:52.045Z,101728.69
2022-10-05T06:40:07.918Z,101732.81
2022-10-05T06:43:41.227Z,101754.78
2022-10-05T06:47:44.789Z,101748.59
2022-10-05T07:08:25.315Z,101598.63
2022-10-05T07:12:38.462Z,101783.03
2022-10-05T07:25:19.515Z,101776.81
2022-10-05T07:33:37.369Z,101774.69
2022-10-05T07:45:38.348Z,101777.50
2022-10-05T08:25:41.126Z,101699.03
2022-10-05T08:29:33.371Z,101741.63
2022-10-05T08:32:44.368Z,101754.81
2022-10-05T08:40:35.987Z,101708.50
2022-10-05T09:45:29.191Z,101771.19
2022-10-05T09:49:35.196Z,101761.84
2022-10-05T10:01:48.376Z,101720.31
2022-10-05T10:05:09.470Z,101750.34
2022-10-05T10:09:08.062Z,101731.41
2022-10-05T10:13:31.224Z,101753.47
2022-10-05T10:17:52.084Z,101760.16
2022-10-05T10:30:51.690Z,101706.75
2022-10-05T10:42:58.380Z,101764.56
2022-10-05T10:47:24.048Z,101753.69
2022-10-05T11:03:29.204Z,101763.44
2022-10-05T11:07:49.245Z,101747.19
2022-10-05T11:11:39.336Z,101675.62
2022-10-05T11:15:30.208Z,101759.19
2022-10-05T11:23:28.731Z,101746.38
2022-10-05T11:27:17.355Z,101746.34
2022-10-05T11:31:13.243Z,101737.72
2022-10-05T11:34:51.199Z,101736.25
2022-10-05T11:38:40.040Z,101729.78
2022-10-05T11:42:03.485Z,101718.78
2022-10-05T11:45:34.598Z,101725.97
2022-10-05T11:49:12.784Z,101725.03
2022-10-05T11:52:56.552Z,101718.06
2022-10-05T12:00:31.104Z,101710.41
2022-10-05T12:04:02.491Z,101690.75
2022-10-05T12:08:03.078Z,101652.72
2022-10-05T12:11:38.640Z,101680.06
2022-10-05T12:15:05.111Z,101683.56
2022-10-05T12:19:14.175Z,101675.84
2022-10-05T12:22:37.048Z,101676.69
2022-10-05T12:26:27.376Z,101672.66
2022-10-05T12:29:53.066Z,101688.94
2022-10-05T12:34:03.594Z,101671.13
2022-10-05T12:38:20.936Z,101677.50
2022-10-05T12:42:12.063Z,101665.22
2022-10-05T12:45:42.199Z,101658.91
2022-10-05T12:49:11.662Z,101651.25
2022-10-05T12:52:37.131Z,101638.97
2022-10-05T12:56:10.232Z,101583.03
2022-10-05T12:59:39.538Z,101627.38
2022-10-05T13:03:20.296Z,101546.44
2022-10-05T13:07:10.330Z,101630.72
2022-10-05T13:11:15.016Z,101637.53
2022-10-05T13:15:00.338Z,101636.22
2022-10-05T13:19:02.420Z,101660.53
2022-10-05T13:22:32.037Z,101646.78
2022-10-05T13:26:10.476Z,101626.75
2022-10-05T13:29:54.540Z,101619.34
2022-10-05T13:34:02.445Z,101636.47
2022-10-05T13:38:10.197Z,101639.53
2022-10-05T13:55:16.727Z,101617.72
2022-10-05T13:58:52.906Z,101623.84
2022-10-05T14:02:08.128Z,101624.66
2022-10-05T14:05:27.143Z,101622.28
2022-10-05T14:08:42.303Z,101618.47
2022-10-05T14:12:18.568Z,101633.56
2022-10-05T14:16:26.202Z,101615.97
2022-10-05T14:23:25.974Z,101621.75
2022-10-05T14:26:44.184Z,101545.47
2022-10-05T14:30:06.412Z,101612.19
2022-10-05T14:33:38.080Z,101590.00
2022-10-05T14:37:03.124Z,101628.62
2022-10-05T14:40:58.240Z,101623.28
2022-10-05T14:44:28.054Z,101621.75
2022-10-05T14:48:21.095Z,101642.56
2022-10-05T14:51:33.171Z,101634.53
2022-10-05T14:54:59.032Z,101631.25
2022-10-05T14:58:44.218Z,101609.50
2022-10-05T15:02:02.149Z,101627.47
2022-10-05T15:05:29.076Z,101600.22
2022-10-05T15:08:59.153Z,101598.34
2022-10-05T15:12:03.623Z,101610.09
2022-10-05T15:15:37.086Z,101603.81
2022-10-05T15:19:04.139Z,101601.38
2022-10-05T15:22:33.224Z,101601.66
2022-10-05T15:26:49.392Z,101597.62
2022-10-05T15:30:49.248Z,101610.13
2022-10-05T15:34:20.916Z,101622.94
2022-10-05T15:37:49.248Z,101596.47
2022-10-05T15:41:31.445Z,101592.03
2022-10-05T15:45:36.163Z,101583.38
2022-10-05T15:49:09.772Z,101593.66
2022-10-05T15:52:34.176Z,101585.53
2022-10-05T15:55:50.247Z,101590.28
2022-10-05T15:59:23.113Z,101582.81
2022-10-05T16:02:47.210Z,101590.84
2022-10-05T16:06:10.299Z,101599.13
2022-10-05T16:09:53.127Z,101597.50
2022-10-05T16:13:37.604Z,101588.84
2022-10-05T16:17:25.892Z,101599.56
2022-10-05T16:21:18.146Z,101584.16
2022-10-05T16:24:52.176Z,101603.69
2022-10-05T16:28:13.763Z,101606.50
2022-10-05T16:31:47.901Z,101614.03
2022-10-05T16:35:38.144Z,101594.69
2022-10-05T16:39:14.286Z,101592.31
2022-10-05T16:42:55.144Z,101588.19
2022-10-05T16:46:55.314Z,101622.75
2022-10-05T16:50:43.582Z,101620.34
2022-10-05T16:54:38.290Z,101615.41
2022-10-05T16:59:05.169Z,101624.53
2022-10-05T17:03:16.271Z,101616.03
2022-10-05T17:07:25.216Z,101641.94
2022-10-05T17:11:08.013Z,101631.66
2022-10-05T17:14:44.156Z,101604.44
2022-10-05T17:18:03.108Z,101635.41
2022-10-05T17:21:24.163Z,101653.13
2022-10-05T17:25:23.530Z,101643.44
2022-10-05T17:29:48.150Z,101656.06
2022-10-05T17:33:23.494Z,101658.91
2022-10-05T17:37:21.155Z,101652.88
2022-10-05T17:41:27.464Z,101617.91
2022-10-05T17:53:34.567Z,101661.50
2022-10-05T17:57:18.463Z,101683.09
2022-10-05T18:00:46.244Z,101513.25
2022-10-05T18:04:35.982Z,101662.78
2022-10-05T18:08:30.245Z,101665.66
2022-10-05T18:11:50.243Z,101654.31
2022-10-05T18:15:08.246Z,101580.53
2022-10-05T18:18:33.342Z,101658.06
2022-10-05T18:22:15.213Z,101662.50
2022-10-05T18:25:28.725Z,101662.59
2022-10-05T18:29:16.248Z,101659.94
2022-10-05T18:32:40.216Z,101597.56
2022-10-05T18:36:25.181Z,101544.03
2022-10-05T18:39:53.947Z,101664.00
2022-10-05T18:43:42.440Z,101670.22
2022-10-05T18:47:11.825Z,101586.81
2022-10-05T18:50:37.174Z,101664.22
2022-10-05T18:53:51.224Z,101645.03
2022-10-05T18:57:24.794Z,101635.50
2022-10-05T19:00:55.181Z,101646.06
2022-10-05T19:04:20.247Z,101664.69
2022-10-05T19:08:04.209Z,101659.47
2022-10-05T19:11:38.212Z,101661.31
2022-10-05T19:15:03.434Z,101661.41
2022-10-05T19:18:45.395Z,101652.00
2022-10-05T19:22:03.792Z,101656.59
2022-10-05T19:25:40.173Z,101669.16
2022-10-05T19:29:36.228Z,101668.38
2022-10-05T19:33:24.279Z,101683.72
2022-10-05T19:37:12.296Z,101643.37
2022-10-05T19:41:26.194Z,101682.44
2022-10-05T19:44:52.528Z,101689.69
2022-10-05T19:48:37.409Z,101676.34
2022-10-05T19:52:19.248Z,101665.88
2022-10-05T19:55:50.178Z,101669.50
2022-10-05T19:59:44.884Z,101696.00
2022-10-05T20:03:26.213Z,101684.47
2022-10-05T20:06:48.336Z,101691.37
2022-10-05T20:09:59.941Z,101696.56
2022-10-05T20:13:33.182Z,101682.44
2022-10-05T20:20:29.097Z,101678.41
2022-10-05T20:23:44.228Z,101681.31
2022-10-05T20:26:50.251Z,101690.38
2022-10-05T20:30:05.572Z,101711.56
2022-10-05T20:33:14.276Z,101716.88
2022-10-05T20:36:25.076Z,101717.91
2022-10-05T20:39:39.186Z,101715.41
2022-10-05T20:42:41.542Z,101715.50
2022-10-05T20:45:56.228Z,101718.19
2022-10-05T20:48:58.868Z,101720.88
2022-10-05T20:52:15.273Z,101723.56
2022-10-05T20:55:50.215Z,101711.09
2022-10-05T20:59:32.748Z,101713.78
2022-10-05T21:03:27.223Z,101708.69
2022-10-05T21:07:04.463Z,101714.13
2022-10-05T21:10:19.244Z,101706.19
2022-10-05T21:13:30.097Z,101723.94
2022-10-05T21:17:24.487Z,101720.50
2022-10-05T21:21:15.315Z,101724.94
2022-10-05T21:25:03.284Z,101722.34
2022-10-05T21:28:18.275Z,101709.16
2022-10-05T21:31:28.449Z,101718.88
2022-10-05T21:34:37.578Z,101698.66
2022-10-05T21:38:29.737Z,101721.63
2022-10-05T21:42:24.270Z,101721.72
2022-10-05T21:45:33.108Z,101711.97
2022-10-05T21:48:44.519Z,101716.44
2022-10-05T21:51:53.138Z,101723.56
2022-10-05T21:55:21.255Z,101706.75
2022-10-05T21:58:51.296Z,101704.09
2022-10-05T22:02:26.299Z,101712.91
2022-10-05T22:06:27.519Z,101716.47
2022-10-05T22:10:15.979Z,101697.81
2022-10-05T22:14:04.362Z,101707.41
2022-10-05T22:17:23.275Z,101710.03
2022-10-05T22:20:27.442Z,101704.59
2022-10-05T22:24:04.299Z,101695.88
2022-10-05T22:27:20.238Z,101694.13
2022-10-05T22:30:22.146Z,101697.66
2022-10-05T22:33:37.275Z,101683.63
2022-10-05T22:36:45.902Z,101704.91
2022-10-05T22:39:54.238Z,101707.69
2022-10-05T22:43:02.818Z,101709.47
2022-10-05T22:46:19.398Z,101681.22
2022-10-05T22:49:28.227Z,101699.75
2022-10-05T22:52:36.815Z,101696.19
2022-10-05T22:56:11.239Z,101694.44
2022-10-05T22:59:46.256Z,101678.50
2022-10-05T23:03:22.231Z,101672.34
2022-10-05T23:06:58.523Z,101695.31
2022-10-05T23:10:07.319Z,101684.53
2022-10-05T23:13:35.707Z,101677.41
2022-10-05T23:17:10.601Z,101679.00
2022-10-05T23:20:39.242Z,101674.53
2022-10-05T23:24:14.251Z,101670.97
2022-10-05T23:27:49.261Z,101675.31
2022-10-05T23:31:10.764Z,101673.59
2022-10-05T23:34:25.307Z,101672.62
2022-10-05T23:37:37.423Z,101674.47
2022-10-05T23:40:46.519Z,101655.09
2022-10-05T23:44:38.256Z,101658.69
2022-10-05T23:48:22.278Z,101648.13
2022-10-05T23:51:50.325Z,101639.22
2022-10-05T23:54:58.845Z,101660.31
2022-10-05T23:58:14.260Z,101614.44
